Chestnut, New Jersey
Current Conditions -  °F | °C
As of 2:51 AM on Saturday 29 Nov 2014 (Local Time) from KEWR Reporting Station
Scattered Clouds Scattered Clouds  
Wind Chill: 25°   Ceiling: Unl
Heat Index: 25°   Visibility: 10mi
Dew Point: 15°   Wind: 3mph
Humidity: 66%   Direction: 270°W
Pressure: 30.33"   Gusts: NA
Location:  40.6941°N, 74.2694°W
Report Text: KEWR 290751Z 27003KT 10SM FEW150 SCT250 M04/M09 A3033 RMK AO2 SLP269 T10391094
Loading
Personal Weather Stations






























Interactive Weather Map New forecast layout! Learn more

10-Day Weather Forecast

Advertisements
Track Severe Weather on mobile